Terminal Aerodrome Forecast
Issued by NWS

Home | Current Version | Previous Version | Text Only | Print | Product List | Glossary On
Versions: 1 2 3 4 5 6 7 8 9 10 11 12 13 14 15 16 17 18 19 20 21
048
FTUS43 KAPX 272324 CCB
TAFPLN
TAF COR
KPLN 272324Z 2723/2824 32006KT P6SM OVC010
     FM280300 33004KT 5SM BR OVC010
     FM280700 35005KT 5SM BR BKN025
     FM281200 02004KT P6SM SCT035
     FM281600 02005KT P6SM FEW250=

USA.gov is the U.S. government's official web portal to all federal, state and local government web resources and services.